sensor_id;sensor_type;location;lat;lon;timestamp;P1;durP1;ratioP1;P2;durP2;ratioP2
17310;SDS011;8773;43.300;0.394;2023-09-19T00:01:40;3.20;;;2.10;;
17310;SDS011;8773;43.300;0.394;2023-09-19T00:04:09;1.67;;;1.60;;
17310;SDS011;8773;43.300;0.394;2023-09-19T00:06:37;2.40;;;2.30;;
17310;SDS011;8773;43.300;0.394;2023-09-19T00:09:04;2.47;;;2.20;;
17310;SDS011;8773;43.300;0.394;2023-09-19T00:11:32;3.97;;;2.10;;
17310;SDS011;8773;43.300;0.394;2023-09-19T00:13:59;2.60;;;2.13;;
17310;SDS011;8773;43.300;0.394;2023-09-19T00:16:27;2.43;;;2.20;;
17310;SDS011;8773;43.300;0.394;2023-09-19T00:18:54;2.20;;;2.10;;
17310;SDS011;8773;43.300;0.394;2023-09-19T00:21:23;2.70;;;2.10;;
17310;SDS011;8773;43.300;0.394;2023-09-19T00:23:50;2.30;;;2.10;;
17310;SDS011;8773;43.300;0.394;2023-09-19T00:26:18;3.17;;;2.23;;
17310;SDS011;8773;43.300;0.394;2023-09-19T00:28:45;4.90;;;2.20;;
17310;SDS011;8773;43.300;0.394;2023-09-19T00:31:12;2.20;;;2.10;;
17310;SDS011;8773;43.300;0.394;2023-09-19T00:33:40;3.50;;;2.47;;
17310;SDS011;8773;43.300;0.394;2023-09-19T00:36:08;2.23;;;2.03;;
17310;SDS011;8773;43.300;0.394;2023-09-19T00:38:36;2.53;;;2.33;;
17310;SDS011;8773;43.300;0.394;2023-09-19T00:41:04;2.73;;;2.20;;
17310;SDS011;8773;43.300;0.394;2023-09-19T00:43:31;2.70;;;2.43;;
17310;SDS011;8773;43.300;0.394;2023-09-19T00:45:59;2.30;;;1.93;;
17310;SDS011;8773;43.300;0.394;2023-09-19T00:48:27;2.63;;;2.30;;
17310;SDS011;8773;43.300;0.394;2023-09-19T00:50:54;2.97;;;2.50;;
17310;SDS011;8773;43.300;0.394;2023-09-19T00:53:25;2.27;;;2.10;;
17310;SDS011;8773;43.300;0.394;2023-09-19T00:55:54;2.40;;;2.20;;
17310;SDS011;8773;43.300;0.394;2023-09-19T00:58:22;3.27;;;2.20;;
17310;SDS011;8773;43.300;0.394;2023-09-19T01:00:50;4.00;;;2.10;;
17310;SDS011;8773;43.300;0.394;2023-09-19T01:03:17;4.27;;;2.30;;
17310;SDS011;8773;43.300;0.394;2023-09-19T01:05:46;2.33;;;2.13;;
17310;SDS011;8773;43.300;0.394;2023-09-19T01:08:13;2.63;;;1.83;;
17310;SDS011;8773;43.300;0.394;2023-09-19T01:10:43;2.83;;;1.87;;
17310;SDS011;8773;43.300;0.394;2023-09-19T01:13:19;2.30;;;2.10;;
17310;SDS011;8773;43.300;0.394;2023-09-19T01:15:55;1.97;;;1.83;;
17310;SDS011;8773;43.300;0.394;2023-09-19T01:18:31;3.77;;;2.17;;
17310;SDS011;8773;43.300;0.394;2023-09-19T01:21:08;2.03;;;1.80;;
17310;SDS011;8773;43.300;0.394;2023-09-19T01:23:49;2.33;;;2.10;;
17310;SDS011;8773;43.300;0.394;2023-09-19T01:26:37;2.30;;;2.10;;
17310;SDS011;8773;43.300;0.394;2023-09-19T01:29:26;2.90;;;2.17;;
17310;SDS011;8773;43.300;0.394;2023-09-19T01:32:03;2.60;;;2.20;;
17310;SDS011;8773;43.300;0.394;2023-09-19T01:34:45;2.80;;;2.17;;
17310;SDS011;8773;43.300;0.394;2023-09-19T01:37:13;2.47;;;2.23;;
17310;SDS011;8773;43.300;0.394;2023-09-19T01:39:41;3.60;;;2.20;;
17310;SDS011;8773;43.300;0.394;2023-09-19T01:42:11;2.57;;;2.00;;
17310;SDS011;8773;43.300;0.394;2023-09-19T01:44:49;2.57;;;1.90;;
17310;SDS011;8773;43.300;0.394;2023-09-19T01:47:28;2.30;;;2.03;;
17310;SDS011;8773;43.300;0.394;2023-09-19T01:50:01;2.10;;;1.93;;
17310;SDS011;8773;43.300;0.394;2023-09-19T01:52:42;2.60;;;2.40;;
17310;SDS011;8773;43.300;0.394;2023-09-19T01:55:15;2.50;;;2.30;;
17310;SDS011;8773;43.300;0.394;2023-09-19T01:57:48;3.00;;;2.10;;
17310;SDS011;8773;43.300;0.394;2023-09-19T02:00:32;2.10;;;1.93;;
17310;SDS011;8773;43.300;0.394;2023-09-19T02:03:02;2.37;;;2.17;;
17310;SDS011;8773;43.300;0.394;2023-09-19T02:05:30;2.77;;;2.07;;
17310;SDS011;8773;43.300;0.394;2023-09-19T02:07:58;2.90;;;2.30;;
17310;SDS011;8773;43.300;0.394;2023-09-19T02:10:25;1.87;;;1.77;;
17310;SDS011;8773;43.300;0.394;2023-09-19T02:12:53;3.90;;;2.30;;
17310;SDS011;8773;43.300;0.394;2023-09-19T02:15:20;1.93;;;1.80;;
17310;SDS011;8773;43.300;0.394;2023-09-19T02:17:47;6.43;;;2.13;;
17310;SDS011;8773;43.300;0.394;2023-09-19T02:20:16;2.27;;;2.10;;
17310;SDS011;8773;43.300;0.394;2023-09-19T02:22:44;2.53;;;1.87;;
17310;SDS011;8773;43.300;0.394;2023-09-19T02:25:11;2.73;;;1.73;;
17310;SDS011;8773;43.300;0.394;2023-09-19T02:27:38;2.30;;;2.00;;
17310;SDS011;8773;43.300;0.394;2023-09-19T02:30:06;1.73;;;1.63;;
17310;SDS011;8773;43.300;0.394;2023-09-19T02:32:34;2.33;;;1.90;;
17310;SDS011;8773;43.300;0.394;2023-09-19T02:35:02;2.37;;;1.70;;
17310;SDS011;8773;43.300;0.394;2023-09-19T02:37:32;2.27;;;2.00;;
17310;SDS011;8773;43.300;0.394;2023-09-19T02:39:59;2.17;;;1.90;;
17310;SDS011;8773;43.300;0.394;2023-09-19T02:42:27;1.50;;;1.40;;
17310;SDS011;8773;43.300;0.394;2023-09-19T02:44:54;3.77;;;2.10;;
17310;SDS011;8773;43.300;0.394;2023-09-19T02:47:22;2.23;;;2.00;;
17310;SDS011;8773;43.300;0.394;2023-09-19T02:49:49;2.10;;;1.80;;
17310;SDS011;8773;43.300;0.394;2023-09-19T02:52:17;2.47;;;1.97;;
17310;SDS011;8773;43.300;0.394;2023-09-19T02:54:46;1.90;;;1.80;;
17310;SDS011;8773;43.300;0.394;2023-09-19T02:57:13;2.53;;;2.10;;
17310;SDS011;8773;43.300;0.394;2023-09-19T02:59:41;1.80;;;1.70;;
17310;SDS011;8773;43.300;0.394;2023-09-19T03:02:08;2.00;;;1.90;;
17310;SDS011;8773;43.300;0.394;2023-09-19T03:04:36;2.13;;;1.93;;
17310;SDS011;8773;43.300;0.394;2023-09-19T03:07:04;1.97;;;1.80;;
17310;SDS011;8773;43.300;0.394;2023-09-19T03:09:31;2.87;;;1.97;;
17310;SDS011;8773;43.300;0.394;2023-09-19T03:12:00;3.17;;;1.93;;
17310;SDS011;8773;43.300;0.394;2023-09-19T03:14:27;3.03;;;1.80;;
17310;SDS011;8773;43.300;0.394;2023-09-19T03:16:55;3.07;;;2.17;;
17310;SDS011;8773;43.300;0.394;2023-09-19T03:19:22;4.00;;;2.10;;
17310;SDS011;8773;43.300;0.394;2023-09-19T03:21:50;2.03;;;1.87;;
17310;SDS011;8773;43.300;0.394;2023-09-19T03:24:17;1.90;;;1.80;;
17310;SDS011;8773;43.300;0.394;2023-09-19T03:26:44;1.87;;;1.77;;
17310;SDS011;8773;43.300;0.394;2023-09-19T03:29:13;2.20;;;1.87;;
17310;SDS011;8773;43.300;0.394;2023-09-19T03:31:41;1.97;;;1.70;;
17310;SDS011;8773;43.300;0.394;2023-09-19T03:34:08;1.83;;;1.73;;
17310;SDS011;8773;43.300;0.394;2023-09-19T03:36:36;2.93;;;1.80;;
17310;SDS011;8773;43.300;0.394;2023-09-19T03:39:06;1.80;;;1.70;;
17310;SDS011;8773;43.300;0.394;2023-09-19T03:41:34;2.13;;;1.80;;
17310;SDS011;8773;43.300;0.394;2023-09-19T03:44:01;2.17;;;1.97;;
17310;SDS011;8773;43.300;0.394;2023-09-19T03:46:30;1.97;;;1.60;;
17310;SDS011;8773;43.300;0.394;2023-09-19T03:48:57;6.93;;;2.20;;
17310;SDS011;8773;43.300;0.394;2023-09-19T03:51:25;2.23;;;2.03;;
17310;SDS011;8773;43.300;0.394;2023-09-19T03:53:52;2.23;;;2.00;;
17310;SDS011;8773;43.300;0.394;2023-09-19T03:56:19;2.70;;;2.03;;
17310;SDS011;8773;43.300;0.394;2023-09-19T03:58:47;4.80;;;2.13;;
17310;SDS011;8773;43.300;0.394;2023-09-19T04:01:14;2.23;;;2.03;;
17310;SDS011;8773;43.300;0.394;2023-09-19T04:03:43;2.03;;;1.93;;
17310;SDS011;8773;43.300;0.394;2023-09-19T04:06:11;1.70;;;1.60;;
17310;SDS011;8773;43.300;0.394;2023-09-19T04:08:38;3.23;;;2.00;;
17310;SDS011;8773;43.300;0.394;2023-09-19T04:11:05;1.83;;;1.70;;
17310;SDS011;8773;43.300;0.394;2023-09-19T04:13:33;2.20;;;2.10;;
17310;SDS011;8773;43.300;0.394;2023-09-19T04:16:00;2.13;;;1.70;;
17310;SDS011;8773;43.300;0.394;2023-09-19T04:18:28;3.80;;;2.40;;
17310;SDS011;8773;43.300;0.394;2023-09-19T04:20:56;3.60;;;2.00;;
17310;SDS011;8773;43.300;0.394;2023-09-19T04:23:24;3.40;;;1.80;;
17310;SDS011;8773;43.300;0.394;2023-09-19T04:25:51;2.93;;;2.00;;
17310;SDS011;8773;43.300;0.394;2023-09-19T04:28:19;2.20;;;1.57;;
17310;SDS011;8773;43.300;0.394;2023-09-19T04:30:46;2.20;;;2.00;;
17310;SDS011;8773;43.300;0.394;2023-09-19T04:33:13;2.20;;;1.67;;
17310;SDS011;8773;43.300;0.394;2023-09-19T04:35:41;2.63;;;2.00;;
17310;SDS011;8773;43.300;0.394;2023-09-19T04:38:10;2.13;;;2.03;;
17310;SDS011;8773;43.300;0.394;2023-09-19T04:40:37;1.93;;;1.73;;
17310;SDS011;8773;43.300;0.394;2023-09-19T04:43:04;2.87;;;1.97;;
17310;SDS011;8773;43.300;0.394;2023-09-19T04:45:32;2.10;;;1.90;;
17310;SDS011;8773;43.300;0.394;2023-09-19T04:47:59;2.10;;;1.90;;
17310;SDS011;8773;43.300;0.394;2023-09-19T04:50:26;5.53;;;2.07;;
17310;SDS011;8773;43.300;0.394;2023-09-19T04:52:54;2.10;;;1.90;;
17310;SDS011;8773;43.300;0.394;2023-09-19T04:55:23;1.87;;;1.77;;
17310;SDS011;8773;43.300;0.394;2023-09-19T04:57:50;4.20;;;1.90;;
17310;SDS011;8773;43.300;0.394;2023-09-19T05:00:18;1.83;;;1.70;;
17310;SDS011;8773;43.300;0.394;2023-09-19T05:02:48;2.37;;;2.00;;
17310;SDS011;8773;43.300;0.394;2023-09-19T05:05:16;1.93;;;1.83;;
17310;SDS011;8773;43.300;0.394;2023-09-19T05:07:44;2.47;;;2.07;;
17310;SDS011;8773;43.300;0.394;2023-09-19T05:10:12;3.63;;;1.90;;
17310;SDS011;8773;43.300;0.394;2023-09-19T05:12:41;2.83;;;2.03;;
17310;SDS011;8773;43.300;0.394;2023-09-19T05:15:09;2.70;;;1.90;;
17310;SDS011;8773;43.300;0.394;2023-09-19T05:17:36;2.53;;;1.90;;
17310;SDS011;8773;43.300;0.394;2023-09-19T05:20:04;2.70;;;2.03;;
17310;SDS011;8773;43.300;0.394;2023-09-19T05:22:32;2.37;;;2.03;;
17310;SDS011;8773;43.300;0.394;2023-09-19T05:24:59;1.90;;;1.80;;
17310;SDS011;8773;43.300;0.394;2023-09-19T05:27:26;2.00;;;1.90;;
17310;SDS011;8773;43.300;0.394;2023-09-19T05:29:55;2.27;;;2.07;;
17310;SDS011;8773;43.300;0.394;2023-09-19T05:32:23;2.10;;;1.90;;
17310;SDS011;8773;43.300;0.394;2023-09-19T05:34:50;2.93;;;2.30;;
17310;SDS011;8773;43.300;0.394;2023-09-19T05:37:17;2.90;;;2.27;;
17310;SDS011;8773;43.300;0.394;2023-09-19T05:39:45;5.53;;;2.67;;
17310;SDS011;8773;43.300;0.394;2023-09-19T05:42:12;2.60;;;2.30;;
17310;SDS011;8773;43.300;0.394;2023-09-19T05:44:39;2.40;;;2.20;;
17310;SDS011;8773;43.300;0.394;2023-09-19T05:47:08;2.73;;;1.83;;
17310;SDS011;8773;43.300;0.394;2023-09-19T05:49:36;2.03;;;1.93;;
17310;SDS011;8773;43.300;0.394;2023-09-19T05:52:07;2.37;;;2.10;;
17310;SDS011;8773;43.300;0.394;2023-09-19T05:54:35;4.67;;;2.27;;
17310;SDS011;8773;43.300;0.394;2023-09-19T05:57:02;1.90;;;1.70;;
17310;SDS011;8773;43.300;0.394;2023-09-19T05:59:30;2.60;;;1.90;;
17310;SDS011;8773;43.300;0.394;2023-09-19T06:01:57;2.07;;;1.97;;
17310;SDS011;8773;43.300;0.394;2023-09-19T06:04:26;2.10;;;2.00;;
17310;SDS011;8773;43.300;0.394;2023-09-19T06:06:53;2.73;;;1.90;;
17310;SDS011;8773;43.300;0.394;2023-09-19T06:09:21;2.40;;;1.80;;
17310;SDS011;8773;43.300;0.394;2023-09-19T06:11:50;2.70;;;2.10;;
17310;SDS011;8773;43.300;0.394;2023-09-19T06:14:17;3.50;;;2.00;;
17310;SDS011;8773;43.300;0.394;2023-09-19T06:16:45;2.33;;;2.10;;
17310;SDS011;8773;43.300;0.394;2023-09-19T06:19:12;4.37;;;2.20;;
17310;SDS011;8773;43.300;0.394;2023-09-19T06:21:41;2.20;;;2.03;;
17310;SDS011;8773;43.300;0.394;2023-09-19T06:24:08;2.00;;;1.90;;
17310;SDS011;8773;43.300;0.394;2023-09-19T06:26:36;2.20;;;2.00;;
17310;SDS011;8773;43.300;0.394;2023-09-19T06:29:03;2.23;;;1.70;;
17310;SDS011;8773;43.300;0.394;2023-09-19T06:31:30;2.20;;;2.00;;
17310;SDS011;8773;43.300;0.394;2023-09-19T06:33:58;1.77;;;1.43;;
17310;SDS011;8773;43.300;0.394;2023-09-19T06:36:25;4.63;;;2.10;;
17310;SDS011;8773;43.300;0.394;2023-09-19T06:38:54;4.67;;;1.80;;
17310;SDS011;8773;43.300;0.394;2023-09-19T06:41:21;2.17;;;2.00;;
17310;SDS011;8773;43.300;0.394;2023-09-19T06:43:49;3.50;;;1.97;;
17310;SDS011;8773;43.300;0.394;2023-09-19T06:46:16;12.87;;;3.00;;
17310;SDS011;8773;43.300;0.394;2023-09-19T06:48:44;4.83;;;2.67;;
17310;SDS011;8773;43.300;0.394;2023-09-19T06:51:11;5.03;;;2.30;;
17310;SDS011;8773;43.300;0.394;2023-09-19T06:53:39;2.33;;;2.07;;
17310;SDS011;8773;43.300;0.394;2023-09-19T06:56:08;2.00;;;1.90;;
17310;SDS011;8773;43.300;0.394;2023-09-19T06:58:35;2.27;;;2.07;;
17310;SDS011;8773;43.300;0.394;2023-09-19T07:01:02;1.90;;;1.80;;
17310;SDS011;8773;43.300;0.394;2023-09-19T07:03:30;2.23;;;2.00;;
17310;SDS011;8773;43.300;0.394;2023-09-19T07:05:57;3.77;;;2.10;;
17310;SDS011;8773;43.300;0.394;2023-09-19T07:08:25;2.45;;;1.90;;
17310;SDS011;8773;43.300;0.394;2023-09-19T07:10:52;3.05;;;2.10;;
17310;SDS011;8773;43.300;0.394;2023-09-19T07:13:21;2.85;;;1.60;;
17310;SDS011;8773;43.300;0.394;2023-09-19T07:15:48;1.60;;;1.52;;
17310;SDS011;8773;43.300;0.394;2023-09-19T07:18:16;1.85;;;1.67;;
17310;SDS011;8773;43.300;0.394;2023-09-19T07:20:44;1.95;;;1.77;;
17310;SDS011;8773;43.300;0.394;2023-09-19T07:23:12;1.60;;;1.50;;
17310;SDS011;8773;43.300;0.394;2023-09-19T07:25:39;2.72;;;1.65;;
17310;SDS011;8773;43.300;0.394;2023-09-19T07:28:07;2.67;;;1.92;;
17310;SDS011;8773;43.300;0.394;2023-09-19T07:30:37;2.65;;;1.50;;
17310;SDS011;8773;43.300;0.394;2023-09-19T07:33:07;3.28;;;1.90;;
17310;SDS011;8773;43.300;0.394;2023-09-19T07:35:34;4.68;;;1.73;;
17310;SDS011;8773;43.300;0.394;2023-09-19T07:38:02;3.00;;;1.67;;
17310;SDS011;8773;43.300;0.394;2023-09-19T07:40:29;2.25;;;1.67;;
17310;SDS011;8773;43.300;0.394;2023-09-19T07:42:57;2.80;;;1.73;;
17310;SDS011;8773;43.300;0.394;2023-09-19T07:45:24;2.60;;;1.70;;
17310;SDS011;8773;43.300;0.394;2023-09-19T07:47:53;2.30;;;1.58;;
17310;SDS011;8773;43.300;0.394;2023-09-19T07:50:21;1.80;;;1.70;;
17310;SDS011;8773;43.300;0.394;2023-09-19T07:52:49;2.15;;;1.80;;
17310;SDS011;8773;43.300;0.394;2023-09-19T07:55:17;3.28;;;1.85;;
17310;SDS011;8773;43.300;0.394;2023-09-19T07:57:44;1.88;;;1.65;;
17310;SDS011;8773;43.300;0.394;2023-09-19T08:00:12;2.95;;;2.08;;
17310;SDS011;8773;43.300;0.394;2023-09-19T08:02:40;2.97;;;2.10;;
17310;SDS011;8773;43.300;0.394;2023-09-19T08:05:10;3.53;;;1.90;;
17310;SDS011;8773;43.300;0.394;2023-09-19T08:07:40;1.80;;;1.70;;
17310;SDS011;8773;43.300;0.394;2023-09-19T08:10:09;2.72;;;1.70;;
17310;SDS011;8773;43.300;0.394;2023-09-19T08:12:37;3.15;;;1.60;;
17310;SDS011;8773;43.300;0.394;2023-09-19T08:15:04;2.00;;;1.90;;
17310;SDS011;8773;43.300;0.394;2023-09-19T08:17:33;1.83;;;1.63;;
17310;SDS011;8773;43.300;0.394;2023-09-19T08:20:01;3.10;;;2.25;;
17310;SDS011;8773;43.300;0.394;2023-09-19T08:22:30;2.38;;;1.80;;
17310;SDS011;8773;43.300;0.394;2023-09-19T08:24:58;2.42;;;1.92;;
17310;SDS011;8773;43.300;0.394;2023-09-19T08:27:25;2.00;;;1.90;;
17310;SDS011;8773;43.300;0.394;2023-09-19T08:29:53;2.03;;;1.92;;
17310;SDS011;8773;43.300;0.394;2023-09-19T08:32:20;2.10;;;2.00;;
17310;SDS011;8773;43.300;0.394;2023-09-19T08:34:47;3.58;;;1.75;;
17310;SDS011;8773;43.300;0.394;2023-09-19T08:37:15;2.08;;;1.98;;
17310;SDS011;8773;43.300;0.394;2023-09-19T08:39:44;2.42;;;2.00;;
17310;SDS011;8773;43.300;0.394;2023-09-19T08:42:11;2.63;;;2.00;;
17310;SDS011;8773;43.300;0.394;2023-09-19T08:44:38;2.85;;;1.73;;
17310;SDS011;8773;43.300;0.394;2023-09-19T08:47:08;2.97;;;2.08;;
17310;SDS011;8773;43.300;0.394;2023-09-19T08:49:38;5.53;;;2.97;;
17310;SDS011;8773;43.300;0.394;2023-09-19T08:52:16;4.50;;;2.38;;
17310;SDS011;8773;43.300;0.394;2023-09-19T08:54:50;5.63;;;2.25;;
17310;SDS011;8773;43.300;0.394;2023-09-19T08:57:19;2.97;;;2.08;;
17310;SDS011;8773;43.300;0.394;2023-09-19T08:59:48;4.60;;;2.10;;
17310;SDS011;8773;43.300;0.394;2023-09-19T09:02:16;2.50;;;1.85;;
17310;SDS011;8773;43.300;0.394;2023-09-19T09:04:43;2.67;;;2.00;;
17310;SDS011;8773;43.300;0.394;2023-09-19T09:07:12;3.60;;;2.00;;
17310;SDS011;8773;43.300;0.394;2023-09-19T09:09:41;4.20;;;2.10;;
17310;SDS011;8773;43.300;0.394;2023-09-19T09:12:10;2.90;;;1.83;;
17310;SDS011;8773;43.300;0.394;2023-09-19T09:14:39;3.63;;;2.00;;
17310;SDS011;8773;43.300;0.394;2023-09-19T09:17:07;3.47;;;2.33;;
17310;SDS011;8773;43.300;0.394;2023-09-19T09:19:34;3.55;;;2.08;;
17310;SDS011;8773;43.300;0.394;2023-09-19T09:22:08;3.05;;;1.80;;
17310;SDS011;8773;43.300;0.394;2023-09-19T09:24:36;2.83;;;1.90;;
17310;SDS011;8773;43.300;0.394;2023-09-19T09:27:04;3.47;;;2.05;;
17310;SDS011;8773;43.300;0.394;2023-09-19T09:29:44;4.72;;;2.55;;
17310;SDS011;8773;43.300;0.394;2023-09-19T09:32:18;3.95;;;2.28;;
17310;SDS011;8773;43.300;0.394;2023-09-19T09:34:47;4.57;;;2.10;;
17310;SDS011;8773;43.300;0.394;2023-09-19T09:37:17;3.35;;;2.13;;
17310;SDS011;8773;43.300;0.394;2023-09-19T09:39:51;2.40;;;2.03;;
17310;SDS011;8773;43.300;0.394;2023-09-19T09:42:28;4.93;;;2.15;;
17310;SDS011;8773;43.300;0.394;2023-09-19T09:45:06;4.68;;;1.85;;
17310;SDS011;8773;43.300;0.394;2023-09-19T09:47:46;4.05;;;1.95;;
17310;SDS011;8773;43.300;0.394;2023-09-19T09:50:14;3.05;;;1.98;;
17310;SDS011;8773;43.300;0.394;2023-09-19T09:52:50;2.70;;;1.73;;
17310;SDS011;8773;43.300;0.394;2023-09-19T09:55:18;3.25;;;1.90;;
17310;SDS011;8773;43.300;0.394;2023-09-19T09:57:48;2.83;;;1.80;;
17310;SDS011;8773;43.300;0.394;2023-09-19T10:00:53;4.90;;;2.03;;
17310;SDS011;8773;43.300;0.394;2023-09-19T10:03:20;2.53;;;1.88;;
17310;SDS011;8773;43.300;0.394;2023-09-19T10:05:52;1.80;;;1.70;;
17310;SDS011;8773;43.300;0.394;2023-09-19T10:08:20;4.18;;;2.30;;
17310;SDS011;8773;43.300;0.394;2023-09-19T10:10:48;2.33;;;1.85;;
17310;SDS011;8773;43.300;0.394;2023-09-19T10:13:15;3.13;;;1.85;;
17310;SDS011;8773;43.300;0.394;2023-09-19T10:15:43;4.07;;;2.13;;
17310;SDS011;8773;43.300;0.394;2023-09-19T10:18:16;3.15;;;1.73;;
17310;SDS011;8773;43.300;0.394;2023-09-19T10:20:46;2.42;;;1.90;;
17310;SDS011;8773;43.300;0.394;2023-09-19T10:23:16;2.72;;;1.75;;
17310;SDS011;8773;43.300;0.394;2023-09-19T10:25:45;1.60;;;1.50;;
17310;SDS011;8773;43.300;0.394;2023-09-19T10:28:13;1.75;;;1.35;;
17310;SDS011;8773;43.300;0.394;2023-09-19T10:30:43;3.15;;;1.50;;
17310;SDS011;8773;43.300;0.394;2023-09-19T10:33:13;1.60;;;1.50;;
17310;SDS011;8773;43.300;0.394;2023-09-19T10:35:43;1.35;;;1.25;;
17310;SDS011;8773;43.300;0.394;2023-09-19T10:38:12;1.58;;;1.27;;
17310;SDS011;8773;43.300;0.394;2023-09-19T10:40:44;1.33;;;1.23;;
17310;SDS011;8773;43.300;0.394;2023-09-19T10:43:16;1.55;;;1.23;;
17310;SDS011;8773;43.300;0.394;2023-09-19T10:45:45;1.77;;;1.25;;
17310;SDS011;8773;43.300;0.394;2023-09-19T10:48:14;2.50;;;1.17;;
17310;SDS011;8773;43.300;0.394;2023-09-19T10:50:43;2.67;;;1.73;;
17310;SDS011;8773;43.300;0.394;2023-09-19T10:53:18;1.38;;;1.25;;
17310;SDS011;8773;43.300;0.394;2023-09-19T10:55:52;1.40;;;1.30;;
17310;SDS011;8773;43.300;0.394;2023-09-19T10:58:28;3.10;;;1.48;;
17310;SDS011;8773;43.300;0.394;2023-09-19T11:00:58;2.50;;;1.45;;
17310;SDS011;8773;43.300;0.394;2023-09-19T11:03:26;1.27;;;1.15;;
17310;SDS011;8773;43.300;0.394;2023-09-19T11:06:05;4.15;;;1.77;;
17310;SDS011;8773;43.300;0.394;2023-09-19T11:08:54;1.90;;;1.77;;
17310;SDS011;8773;43.300;0.394;2023-09-19T11:11:38;1.40;;;1.30;;
17310;SDS011;8773;43.300;0.394;2023-09-19T11:20:18;1.35;;;1.25;;
17310;SDS011;8773;43.300;0.394;2023-09-19T11:25:46;2.45;;;1.35;;
17310;SDS011;8773;43.300;0.394;2023-09-19T11:40:27;1.63;;;1.50;;
17310;SDS011;8773;43.300;0.394;2023-09-19T11:42:55;1.85;;;1.70;;
17310;SDS011;8773;43.300;0.394;2023-09-19T11:48:27;1.30;;;1.20;;
17310;SDS011;8773;43.300;0.394;2023-09-19T11:50:56;1.70;;;1.30;;
17310;SDS011;8773;43.300;0.394;2023-09-19T11:53:24;1.30;;;1.20;;
17310;SDS011;8773;43.300;0.394;2023-09-19T11:55:59;1.30;;;1.17;;
17310;SDS011;8773;43.300;0.394;2023-09-19T11:58:27;1.50;;;1.33;;
17310;SDS011;8773;43.300;0.394;2023-09-19T12:00:55;1.95;;;1.40;;
17310;SDS011;8773;43.300;0.394;2023-09-19T12:03:24;1.95;;;1.30;;
17310;SDS011;8773;43.300;0.394;2023-09-19T12:05:57;2.28;;;1.65;;
17310;SDS011;8773;43.300;0.394;2023-09-19T12:08:25;1.50;;;1.40;;
17310;SDS011;8773;43.300;0.394;2023-09-19T12:10:52;1.90;;;1.77;;
17310;SDS011;8773;43.300;0.394;2023-09-19T12:13:21;2.05;;;1.48;;
17310;SDS011;8773;43.300;0.394;2023-09-19T12:15:49;1.38;;;1.27;;
17310;SDS011;8773;43.300;0.394;2023-09-19T12:18:26;1.75;;;1.15;;
17310;SDS011;8773;43.300;0.394;2023-09-19T12:20:53;2.40;;;1.30;;
17310;SDS011;8773;43.300;0.394;2023-09-19T12:23:21;1.02;;;1.02;;
17310;SDS011;8773;43.300;0.394;2023-09-19T12:25:48;1.35;;;1.25;;
17310;SDS011;8773;43.300;0.394;2023-09-19T12:28:16;1.85;;;1.27;;
17310;SDS011;8773;43.300;0.394;2023-09-19T12:30:45;1.77;;;1.40;;
17310;SDS011;8773;43.300;0.394;2023-09-19T12:33:16;1.20;;;1.10;;
17310;SDS011;8773;43.300;0.394;2023-09-19T12:35:43;2.00;;;1.20;;
17310;SDS011;8773;43.300;0.394;2023-09-19T12:38:11;3.45;;;1.52;;
17310;SDS011;8773;43.300;0.394;2023-09-19T12:40:49;1.85;;;1.10;;
17310;SDS011;8773;43.300;0.394;2023-09-19T12:43:17;1.48;;;1.13;;
17310;SDS011;8773;43.300;0.394;2023-09-19T12:45:47;1.85;;;1.40;;
17310;SDS011;8773;43.300;0.394;2023-09-19T12:48:18;1.75;;;1.20;;
17310;SDS011;8773;43.300;0.394;2023-09-19T12:50:58;1.00;;;1.00;;
17310;SDS011;8773;43.300;0.394;2023-09-19T12:53:27;1.35;;;1.20;;
17310;SDS011;8773;43.300;0.394;2023-09-19T12:55:58;1.65;;;1.30;;
17310;SDS011;8773;43.300;0.394;2023-09-19T12:58:26;1.60;;;1.50;;
17310;SDS011;8773;43.300;0.394;2023-09-19T13:00:55;2.03;;;1.83;;
17310;SDS011;8773;43.300;0.394;2023-09-19T13:03:25;1.50;;;1.38;;
17310;SDS011;8773;43.300;0.394;2023-09-19T13:05:54;1.63;;;1.25;;
17310;SDS011;8773;43.300;0.394;2023-09-19T13:08:26;1.08;;;1.08;;
17310;SDS011;8773;43.300;0.394;2023-09-19T13:11:01;1.38;;;1.35;;
17310;SDS011;8773;43.300;0.394;2023-09-19T13:13:32;2.67;;;1.75;;
17310;SDS011;8773;43.300;0.394;2023-09-19T13:16:02;2.13;;;1.45;;
17310;SDS011;8773;43.300;0.394;2023-09-19T13:18:30;1.55;;;1.45;;
17310;SDS011;8773;43.300;0.394;2023-09-19T13:21:07;1.88;;;1.50;;
17310;SDS011;8773;43.300;0.394;2023-09-19T13:23:35;1.95;;;1.58;;
17310;SDS011;8773;43.300;0.394;2023-09-19T13:26:02;1.40;;;1.30;;
17310;SDS011;8773;43.300;0.394;2023-09-19T13:28:30;1.67;;;1.40;;
17310;SDS011;8773;43.300;0.394;2023-09-19T13:30:57;1.77;;;1.40;;
17310;SDS011;8773;43.300;0.394;2023-09-19T13:33:26;1.75;;;1.48;;
17310;SDS011;8773;43.300;0.394;2023-09-19T13:35:53;1.25;;;1.25;;
17310;SDS011;8773;43.300;0.394;2023-09-19T13:38:21;1.50;;;1.40;;
17310;SDS011;8773;43.300;0.394;2023-09-19T13:40:48;1.40;;;1.30;;
17310;SDS011;8773;43.300;0.394;2023-09-19T13:43:16;1.88;;;1.50;;
17310;SDS011;8773;43.300;0.394;2023-09-19T13:45:43;1.73;;;1.30;;
17310;SDS011;8773;43.300;0.394;2023-09-19T13:48:10;1.50;;;1.40;;
17310;SDS011;8773;43.300;0.394;2023-09-19T13:50:40;2.00;;;1.70;;
17310;SDS011;8773;43.300;0.394;2023-09-19T13:53:07;1.88;;;1.40;;
17310;SDS011;8773;43.300;0.394;2023-09-19T13:55:35;1.88;;;1.65;;
17310;SDS011;8773;43.300;0.394;2023-09-19T13:58:02;1.80;;;1.42;;
17310;SDS011;8773;43.300;0.394;2023-09-19T14:00:30;2.63;;;1.63;;
17310;SDS011;8773;43.300;0.394;2023-09-19T14:02:57;1.67;;;1.60;;
17310;SDS011;8773;43.300;0.394;2023-09-19T14:05:25;1.63;;;1.60;;
17310;SDS011;8773;43.300;0.394;2023-09-19T14:07:53;1.73;;;1.48;;
17310;SDS011;8773;43.300;0.394;2023-09-19T14:10:21;1.85;;;1.75;;
17310;SDS011;8773;43.300;0.394;2023-09-19T14:12:49;1.58;;;1.45;;
17310;SDS011;8773;43.300;0.394;2023-09-19T14:15:16;2.53;;;1.60;;
17310;SDS011;8773;43.300;0.394;2023-09-19T14:17:44;1.88;;;1.77;;
17310;SDS011;8773;43.300;0.394;2023-09-19T14:20:12;1.77;;;1.40;;
17310;SDS011;8773;43.300;0.394;2023-09-19T14:22:39;1.70;;;1.60;;
17310;SDS011;8773;43.300;0.394;2023-09-19T14:25:09;2.05;;;1.48;;
17310;SDS011;8773;43.300;0.394;2023-09-19T14:27:36;2.03;;;1.50;;
17310;SDS011;8773;43.300;0.394;2023-09-19T14:30:04;4.90;;;1.70;;
17310;SDS011;8773;43.300;0.394;2023-09-19T14:32:33;1.67;;;1.58;;
17310;SDS011;8773;43.300;0.394;2023-09-19T14:35:00;1.60;;;1.50;;
17310;SDS011;8773;43.300;0.394;2023-09-19T14:37:28;3.08;;;1.60;;
17310;SDS011;8773;43.300;0.394;2023-09-19T14:39:55;1.40;;;1.30;;
17310;SDS011;8773;43.300;0.394;2023-09-19T14:42:24;1.58;;;1.48;;
17310;SDS011;8773;43.300;0.394;2023-09-19T14:44:51;1.63;;;1.40;;
17310;SDS011;8773;43.300;0.394;2023-09-19T14:47:19;2.20;;;1.70;;
17310;SDS011;8773;43.300;0.394;2023-09-19T14:49:46;1.48;;;1.20;;
17310;SDS011;8773;43.300;0.394;2023-09-19T14:52:13;1.40;;;1.30;;
17310;SDS011;8773;43.300;0.394;2023-09-19T14:54:41;1.73;;;1.20;;
17310;SDS011;8773;43.300;0.394;2023-09-19T14:57:08;1.38;;;1.25;;
17310;SDS011;8773;43.300;0.394;2023-09-19T14:59:37;1.13;;;1.10;;
17310;SDS011;8773;43.300;0.394;2023-09-19T15:02:05;1.38;;;1.27;;
17310;SDS011;8773;43.300;0.394;2023-09-19T15:04:33;1.58;;;1.40;;
17310;SDS011;8773;43.300;0.394;2023-09-19T15:07:01;1.40;;;1.30;;
17310;SDS011;8773;43.300;0.394;2023-09-19T15:09:29;1.40;;;1.40;;
17310;SDS011;8773;43.300;0.394;2023-09-19T15:11:56;1.38;;;1.27;;
17310;SDS011;8773;43.300;0.394;2023-09-19T15:14:24;1.65;;;1.55;;
17310;SDS011;8773;43.300;0.394;2023-09-19T15:16:53;2.38;;;1.30;;
17310;SDS011;8773;43.300;0.394;2023-09-19T15:19:20;1.35;;;1.30;;
17310;SDS011;8773;43.300;0.394;2023-09-19T15:21:48;1.15;;;1.15;;
17310;SDS011;8773;43.300;0.394;2023-09-19T15:24:15;1.63;;;1.13;;
17310;SDS011;8773;43.300;0.394;2023-09-19T15:26:43;1.27;;;1.17;;
17310;SDS011;8773;43.300;0.394;2023-09-19T15:29:10;1.17;;;1.17;;
17310;SDS011;8773;43.300;0.394;2023-09-19T15:31:37;1.83;;;1.35;;
17310;SDS011;8773;43.300;0.394;2023-09-19T15:34:06;1.77;;;1.30;;
17310;SDS011;8773;43.300;0.394;2023-09-19T15:36:34;1.40;;;1.30;;